Archival Weather

Chicago O'Hare International

Chicago, Illinois (KORD)

Report from: Wednesday, January 25, 2023 2:51 AM CST
Current time: Monday, February 6, 2023 12:32 AM CST

Current weather
Weather history
Weather forecast

Present weatherLight snow
Temperature0.0°C (32.0°F)
Dew point-2.2°C (28.0°F)
Winds Calm
Visibility1 mi. (1.6 km)
Clouds Ceiling: Overcast 1,000 ft. (305 m)
Altimeter29.93 in.Hg (1014 mB)
Precipitiation0.03 in. (1 mm)
Precip last 3 hours0.04 in. (1 mm)
Relative humidity85 %
Density altitude-1,763 ft. (-537 m)
Sea-level pressure101.4 kPa (1014 mB, 29.95 in.Hg)
Remarks Automated weather observing station with precipitation discriminator
Pressure falling more slowly
Flight conditions Instrument Meteorological Conditions
Raw dataKORD 250851Z 00000KT 1SM R10L/P6000FT -SN OVC010 00/M02 A2993 RMK AO2 SLP142 P0003 60004 T00001022 56033
An error has occurred. This application may no longer respond until reloaded. Reload 🗙